Time,TemperatureF,DewpointF,PressureIn,WindDirection,WindDirectionDegrees,WindSpeedMPH,WindSpeedGustMPH,Humidity,HourlyPrecipIn,Conditions,Clouds,dailyrainin,SoftwareType,DateUTC
2013-09-11 00:00:00,76.3,52.8,28.14,South,180,3.5,3.5,44,0.00,CLR,,0.00,WeatherDisplay:10.37,2013-09-11 05:00:00,
2013-09-11 00:02:00,76.3,52.8,28.14,South,180,3.5,3.5,44,0.00,CLR,,0.00,WeatherDisplay:10.37,2013-09-11 05:02:00,
2013-09-11 00:03:00,76.3,52.8,28.14,SSE,158,2.3,2.3,44,0.00,CLR,,0.00,WeatherDisplay:10.37,2013-09-11 05:03:00,
2013-09-11 00:05:00,76.3,52.8,28.14,SSE,158,3.6,3.6,44,0.00,CLR,,0.00,WeatherDisplay:10.37,2013-09-11 05:05:00,
2013-09-11 00:07:00,76.3,52.8,28.14,South,180,1.1,1.1,44,0.00,CLR,,0.00,WeatherDisplay:10.37,2013-09-11 05:07:00,
2013-09-11 00:10:00,76.3,52.8,28.02,West,270,4.9,4.9,44,0.00,CLR,,0.00,WeatherDisplay:10.37,2013-09-11 05:10:00,
2013-09-11 00:14:00,76.3,52.8,28.02,SE,135,2.4,2.4,44,0.00,CLR,,0.00,WeatherDisplay:10.37,2013-09-11 05:14:00,
2013-09-11 00:15:00,76.3,52.8,28.02,SSW,202,4.6,4.6,44,0.00,CLR,,0.00,WeatherDisplay:10.37,2013-09-11 05:15:00,
2013-09-11 00:16:00,76.3,52.8,28.02,South,180,3.5,3.5,44,0.00,CLR,,0.00,WeatherDisplay:10.37,2013-09-11 05:16:00,
2013-09-11 00:17:00,76.3,52.8,28.02,SSE,158,2.3,2.3,44,0.00,CLR,,0.00,WeatherDisplay:10.37,2013-09-11 05:17:00,
2013-09-11 00:21:00,76.5,52.9,28.02,SSW,202,2.3,2.3,44,0.00,CLR,,0.00,WeatherDisplay:10.37,2013-09-11 05:21:00,
2013-09-11 00:22:00,76.5,52.9,28.02,SSW,202,5.8,5.8,44,0.00,CLR,,0.00,WeatherDisplay:10.37,2013-09-11 05:22:00,
2013-09-11 00:26:00,76.5,52.9,28.08,SE,135,3.5,3.5,44,0.00,CLR,,0.00,WeatherDisplay:10.37,2013-09-11 05:26:00,
2013-09-11 00:27:00,76.5,52.9,28.08,SSW,202,6.0,6.0,44,0.00,CLR,,0.00,WeatherDisplay:10.37,2013-09-11 05:27:00,
2013-09-11 00:28:00,76.5,52.9,28.08,SSW,202,5.8,5.8,44,0.00,CLR,,0.00,WeatherDisplay:10.37,2013-09-11 05:28:00,
2013-09-11 00:30:00,76.5,52.9,28.08,South,180,3.5,3.5,44,0.00,CLR,,0.00,WeatherDisplay:10.37,2013-09-11 05:30:00,
2013-09-11 00:34:00,76.5,52.9,28.08,SSW,202,3.5,3.5,44,0.00,CLR,,0.00,WeatherDisplay:10.37,2013-09-11 05:34:00,
2013-09-11 00:36:00,76.5,52.9,28.08,South,180,2.3,2.3,44,0.00,CLR,,0.00,WeatherDisplay:10.37,2013-09-11 05:36:00,
2013-09-11 00:39:00,76.5,52.3,28.08,South,180,4.6,4.6,43,0.00,CLR,,0.00,WeatherDisplay:10.37,2013-09-11 05:39:00,
2013-09-11 00:40:00,76.5,52.3,28.05,South,180,4.7,4.7,43,0.00,CLR,,0.00,WeatherDisplay:10.37,2013-09-11 05:40:00,
2013-09-11 00:42:00,76.6,52.5,28.05,West,270,4.6,4.6,43,0.00,CLR,,0.00,WeatherDisplay:10.37,2013-09-11 05:42:00,
2013-09-11 00:44:00,76.6,52.5,28.05,SSW,200,2.0,0.0,43,0.00,CLR,,0.00,WeatherDisplay:10.37,2013-09-11 05:44:00,
2013-09-11 00:45:00,76.6,52.5,28.05,SSE,158,2.4,2.4,43,0.00,CLR,,0.00,WeatherDisplay:10.37,2013-09-11 05:45:00,
2013-09-11 00:47:00,76.8,52.6,28.05,SSW,202,2.4,2.4,43,0.00,CLR,,0.00,WeatherDisplay:10.37,2013-09-11 05:47:00,
2013-09-11 00:48:00,76.8,52.6,28.05,West,270,3.5,3.5,43,0.00,CLR,,0.00,WeatherDisplay:10.37,2013-09-11 05:48:00,
2013-09-11 00:51:00,76.8,52.6,28.05,WSW,248,4.6,4.6,43,0.00,CLR,,0.00,WeatherDisplay:10.37,2013-09-11 05:51:00,
2013-09-11 00:52:00,76.8,52.6,28.05,SSE,158,3.1,3.1,43,0.00,CLR,,0.00,WeatherDisplay:10.37,2013-09-11 05:52:00,
2013-09-11 00:54:00,76.8,52.0,28.05,SSW,202,2.3,2.3,42,0.00,CLR,,0.00,WeatherDisplay:10.37,2013-09-11 05:54:00,
2013-09-11 00:55:00,76.8,52.0,27.93,SE,135,2.3,2.3,42,0.00,CLR,,0.00,WeatherDisplay:10.37,2013-09-11 05:55:00,
2013-09-11 00:58:00,77.0,52.1,27.93,SSW,202,1.4,2.2,42,0.00,CLR,,0.00,WeatherDisplay:10.37,2013-09-11 05:58:00,
2013-09-11 00:59:00,77.0,52.1,27.93,SSW,202,1.4,2.2,42,0.00,CLR,,0.00,WeatherDisplay:10.37,2013-09-11 05:59:00,
2013-09-11 01:03:00,77.0,51.5,27.93,SSW,202,2.3,2.3,41,0.00,CLR,,0.00,WeatherDisplay:10.37,2013-09-11 06:03:00,
2013-09-11 01:04:00,77.0,51.5,27.93,SSW,202,1.1,1.1,41,0.00,CLR,,0.00,WeatherDisplay:10.37,2013-09-11 06:04:00,
2013-09-11 01:07:00,77.0,51.5,27.93,SW,225,2.3,2.3,41,0.00,CLR,,0.00,WeatherDisplay:10.37,2013-09-11 06:07:00,
2013-09-11 01:09:00,76.8,52.0,27.93,SSW,202,2.3,2.3,42,0.00,CLR,,0.00,WeatherDisplay:10.37,2013-09-11 06:09:00,
2013-09-11 01:10:00,76.8,52.0,27.99,SSE,158,1.1,0.0,42,0.00,CLR,,0.00,WeatherDisplay:10.37,2013-09-11 06:10:00,
2013-09-11 01:11:00,76.8,52.0,27.99,SW,225,2.4,2.4,42,0.00,CLR,,0.00,WeatherDisplay:10.37,2013-09-11 06:11:00,
2013-09-11 01:13:00,76.8,51.3,27.99,SW,225,3.5,3.5,41,0.00,CLR,,0.00,WeatherDisplay:10.37,2013-09-11 06:13:00,
2013-09-11 01:15:00,76.8,52.0,27.99,SSE,158,2.3,2.3,42,0.00,CLR,,0.00,WeatherDisplay:10.37,2013-09-11 06:15:00,
2013-09-11 01:16:00,76.6,51.2,27.99,WSW,248,1.1,0.0,41,0.00,CLR,,0.00,WeatherDisplay:10.37,2013-09-11 06:16:00,
2013-09-11 01:17:00,76.6,51.2,27.99,South,180,1.4,0.0,41,0.00,CLR,,0.00,WeatherDisplay:10.37,2013-09-11 06:17:00,
2013-09-11 01:19:00,76.6,51.8,27.99,SSW,202,2.3,2.3,42,0.00,CLR,,0.00,WeatherDisplay:10.37,2013-09-11 06:19:00,
2013-09-11 01:23:00,76.6,51.2,27.99,South,180,1.1,0.0,41,0.00,CLR,,0.00,WeatherDisplay:10.37,2013-09-11 06:23:00,
2013-09-11 01:24:00,76.6,51.2,27.99,SW,225,2.3,2.3,41,0.00,CLR,,0.00,WeatherDisplay:10.37,2013-09-11 06:24:00,
2013-09-11 01:25:00,76.5,51.0,27.99,South,180,2.3,2.3,41,0.00,CLR,,0.00,WeatherDisplay:10.37,2013-09-11 06:25:00,
2013-09-11 01:28:00,76.5,51.0,27.99,South,180,2.3,2.3,41,0.00,CLR,,0.00,WeatherDisplay:10.37,2013-09-11 06:28:00,
2013-09-11 01:29:00,76.5,51.0,27.99,SSW,202,2.3,2.3,41,0.00,CLR,,0.00,WeatherDisplay:10.37,2013-09-11 06:29:00,
2013-09-11 01:31:00,76.5,51.0,27.99,SSE,158,2.3,2.3,41,0.00,CLR,,0.00,WeatherDisplay:10.37,2013-09-11 06:31:00,
2013-09-11 01:33:00,76.5,51.0,27.99,SSW,202,1.1,1.1,41,0.00,CLR,,0.00,WeatherDisplay:10.37,2013-09-11 06:33:00,
2013-09-11 01:34:00,76.5,51.0,27.99,SSW,202,3.5,3.5,41,0.00,CLR,,0.00,WeatherDisplay:10.37,2013-09-11 06:34:00,
2013-09-11 01:36:00,76.6,51.2,27.99,West,270,3.1,3.1,41,0.00,CLR,,0.00,WeatherDisplay:10.37,2013-09-11 06:36:00,
2013-09-11 01:39:00,76.6,51.2,27.99,South,180,4.6,4.6,41,0.00,CLR,,0.00,WeatherDisplay:10.37,2013-09-11 06:39:00,
2013-09-11 01:42:00,76.6,51.2,27.97,SE,135,3.5,3.5,41,0.00,CLR,,0.00,WeatherDisplay:10.37,2013-09-11 06:42:00,
2013-09-11 01:44:00,76.6,51.2,27.97,SSW,202,2.3,2.3,41,0.00,CLR,,0.00,WeatherDisplay:10.37,2013-09-11 06:44:00,
2013-09-11 01:45:00,76.6,51.2,27.97,SSW,202,3.3,3.3,41,0.00,CLR,,0.00,WeatherDisplay:10.37,2013-09-11 06:45:00,
2013-09-11 01:47:00,76.8,51.3,27.97,SW,225,4.6,4.6,41,0.00,CLR,,0.00,WeatherDisplay:10.37,2013-09-11 06:47:00,
2013-09-11 01:48:00,76.8,50.7,27.97,SSW,202,2.3,2.3,40,0.00,CLR,,0.00,WeatherDisplay:10.37,2013-09-11 06:48:00,
2013-09-11 01:49:00,76.8,50.7,27.97,West,270,1.6,1.6,40,0.00,CLR,,0.00,WeatherDisplay:10.37,2013-09-11 06:49:00,
2013-09-11 01:50:00,76.8,50.7,27.97,WSW,248,2.3,2.3,40,0.00,CLR,,0.00,WeatherDisplay:10.37,2013-09-11 06:50:00,
2013-09-11 01:51:00,76.6,50.5,27.97,SSW,202,2.3,2.3,40,0.00,CLR,,0.00,WeatherDisplay:10.37,2013-09-11 06:51:00,
2013-09-11 01:54:00,76.6,50.5,27.93,South,180,1.6,1.6,40,0.00,CLR,,0.00,WeatherDisplay:10.37,2013-09-11 06:54:00,
2013-09-11 01:57:00,76.6,50.5,27.93,South,180,2.3,2.3,40,0.00,CLR,,0.00,WeatherDisplay:10.37,2013-09-11 06:57:00,
2013-09-11 02:00:00,76.6,50.5,27.93,ESE,112,2.3,2.3,40,0.00,CLR,,0.00,WeatherDisplay:10.37,2013-09-11 07:00:00,
2013-09-11 02:03:00,76.5,50.3,27.93,South,180,1.1,0.0,40,0.00,CLR,,0.00,WeatherDisplay:10.37,2013-09-11 07:03:00,
2013-09-11 02:05:00,76.5,50.3,27.93,South,180,2.3,2.3,40,0.00,CLR,,0.00,WeatherDisplay:10.37,2013-09-11 07:05:00,
2013-09-11 02:06:00,76.5,50.3,27.93,West,270,3.5,3.5,40,0.00,CLR,,0.00,WeatherDisplay:10.37,2013-09-11 07:06:00,
2013-09-11 02:07:00,76.5,50.3,27.93,West,270,3.5,3.5,40,0.00,CLR,,0.00,WeatherDisplay:10.37,2013-09-11 07:07:00,
2013-09-11 02:10:00,76.5,50.3,27.93,SE,135,3.5,3.5,40,0.00,CLR,,0.00,WeatherDisplay:10.37,2013-09-11 07:10:00,
2013-09-11 02:11:00,76.5,50.3,27.93,SSE,158,3.5,3.5,40,0.00,CLR,,0.00,WeatherDisplay:10.37,2013-09-11 07:11:00,
2013-09-11 02:12:00,76.5,50.3,27.93,SSW,202,2.3,2.3,40,0.00,CLR,,0.00,WeatherDisplay:10.37,2013-09-11 07:12:00,
2013-09-11 02:15:00,76.3,50.2,27.93,WSW,248,2.3,2.3,40,0.00,CLR,,0.00,WeatherDisplay:10.37,2013-09-11 07:15:00,
2013-09-11 02:17:00,76.3,50.2,27.93,SSW,202,2.3,2.3,40,0.00,CLR,,0.00,WeatherDisplay:10.37,2013-09-11 07:17:00,
2013-09-11 02:18:00,76.3,50.2,27.93,SW,225,1.1,0.0,40,0.00,CLR,,0.00,WeatherDisplay:10.37,2013-09-11 07:18:00,
2013-09-11 02:19:00,76.3,50.2,27.93,South,180,3.5,3.5,40,0.00,CLR,,0.00,WeatherDisplay:10.37,2013-09-11 07:19:00,
2013-09-11 02:23:00,76.1,50.0,27.93,SSW,202,2.3,2.3,40,0.00,CLR,,0.00,WeatherDisplay:10.37,2013-09-11 07:23:00,
2013-09-11 02:24:00,76.1,50.0,27.93,SW,224,1.0,0.0,40,0.00,CLR,,0.00,WeatherDisplay:10.37,2013-09-11 07:24:00,
2013-09-11 02:25:00,76.1,50.0,27.93,SW,225,2.3,0.0,40,0.00,CLR,,0.00,WeatherDisplay:10.37,2013-09-11 07:25:00,
2013-09-11 02:28:00,76.1,50.0,27.93,WSW,248,0.0,0.0,40,0.00,CLR,,0.00,WeatherDisplay:10.37,2013-09-11 07:28:00,
2013-09-11 02:29:00,75.9,50.5,27.93,SW,229,1.0,0.0,41,0.00,CLR,,0.00,WeatherDisplay:10.37,2013-09-11 07:29:00,
2013-09-11 02:31:00,75.9,50.5,27.93,SSE,158,2.3,2.3,41,0.00,CLR,,0.00,WeatherDisplay:10.37,2013-09-11 07:31:00,
2013-09-11 02:33:00,75.9,50.5,27.93,SE,135,1.1,1.1,41,0.00,CLR,,0.00,WeatherDisplay:10.37,2013-09-11 07:33:00,
2013-09-11 02:35:00,75.7,50.4,27.93,SW,225,2.6,2.6,41,0.00,CLR,,0.00,WeatherDisplay:10.37,2013-09-11 07:35:00,
2013-09-11 02:36:00,75.7,50.4,27.93,SSW,202,2.3,2.3,41,0.00,CLR,,0.00,WeatherDisplay:10.37,2013-09-11 07:36:00,
2013-09-11 02:38:00,75.7,50.4,27.93,WSW,248,2.3,0.0,41,0.00,CLR,,0.00,WeatherDisplay:10.37,2013-09-11 07:38:00,
2013-09-11 02:41:00,75.7,50.4,27.82,West,270,1.6,1.6,41,0.00,CLR,,0.00,WeatherDisplay:10.37,2013-09-11 07:41:00,
2013-09-11 02:42:00,75.6,50.2,27.82,SSE,158,3.5,3.5,41,0.00,CLR,,0.00,WeatherDisplay:10.37,2013-09-11 07:42:00,
2013-09-11 02:43:00,75.6,50.2,27.82,SSE,158,2.3,2.3,41,0.00,CLR,,0.00,WeatherDisplay:10.37,2013-09-11 07:43:00,
2013-09-11 02:44:00,75.6,50.2,27.82,SSE,158,1.1,0.0,41,0.00,CLR,,0.00,WeatherDisplay:10.37,2013-09-11 07:44:00,
2013-09-11 02:45:00,75.6,50.2,27.82,SSW,202,1.1,0.0,41,0.00,CLR,,0.00,WeatherDisplay:10.37,2013-09-11 07:45:00,
2013-09-11 02:46:00,75.6,50.2,27.82,South,180,0.0,0.0,41,0.00,CLR,,0.00,WeatherDisplay:10.37,2013-09-11 07:46:00,
2013-09-11 02:47:00,75.6,50.2,27.82,South,180,1.1,0.0,41,0.00,CLR,,0.00,WeatherDisplay:10.37,2013-09-11 07:47:00,
2013-09-11 02:49:00,75.4,50.0,27.82,South,181,1.0,0.0,41,0.00,CLR,,0.00,WeatherDisplay:10.37,2013-09-11 07:49:00,
2013-09-11 02:51:00,75.4,50.0,27.82,SW,225,1.6,0.0,41,0.00,CLR,,0.00,WeatherDisplay:10.37,2013-09-11 07:51:00,
2013-09-11 02:52:00,75.4,50.0,27.82,SW,225,1.1,1.1,41,0.00,CLR,,0.00,WeatherDisplay:10.37,2013-09-11 07:52:00,
2013-09-11 02:54:00,75.2,49.9,27.78,SSW,198,1.0,0.0,41,0.00,CLR,,0.00,WeatherDisplay:10.37,2013-09-11 07:54:00,
2013-09-11 02:55:00,75.2,49.9,27.76,SSW,202,0.0,0.0,41,0.00,CLR,,0.00,WeatherDisplay:10.37,2013-09-11 07:55:00,
2013-09-11 02:56:00,75.2,49.9,27.76,SSW,202,1.1,0.0,41,0.00,CLR,,0.00,WeatherDisplay:10.37,2013-09-11 07:56:00,
2013-09-11 02:58:00,75.2,49.9,27.76,SSW,202,0.0,0.0,41,0.00,CLR,,0.00,WeatherDisplay:10.37,2013-09-11 07:58:00,
2013-09-11 03:01:00,75.0,50.4,27.76,SW,225,2.3,0.0,42,0.00,CLR,,0.00,WeatherDisplay:10.37,2013-09-11 08:01:00,
2013-09-11 03:02:00,75.0,50.4,27.76,SW,225,1.1,0.0,42,0.00,CLR,,0.00,WeatherDisplay:10.37,2013-09-11 08:02:00,
2013-09-11 03:06:00,75.0,50.4,27.76,SSW,202,0.0,0.0,42,0.00,CLR,,0.00,WeatherDisplay:10.37,2013-09-11 08:06:00,
2013-09-11 03:08:00,74.8,50.2,27.76,SSW,202,0.0,0.0,42,0.00,CLR,,0.00,WeatherDisplay:10.37,2013-09-11 08:08:00,
2013-09-11 03:09:00,74.8,50.2,27.85,SSW,202,2.3,2.3,42,0.00,CLR,,0.00,WeatherDisplay:10.37,2013-09-11 08:09:00,
2013-09-11 03:13:00,74.8,50.2,27.85,SSW,202,2.4,0.0,42,0.00,CLR,,0.00,WeatherDisplay:10.37,2013-09-11 08:13:00,
2013-09-11 03:14:00,74.7,50.0,27.85,SSE,158,2.3,2.3,42,0.00,CLR,,0.00,WeatherDisplay:10.37,2013-09-11 08:14:00,
2013-09-11 03:15:00,74.7,50.0,27.85,SSW,202,2.0,0.0,42,0.00,CLR,,0.00,WeatherDisplay:10.37,2013-09-11 08:15:00,
2013-09-11 03:16:00,74.7,50.0,27.85,WSW,248,2.3,2.3,42,0.00,CLR,,0.00,WeatherDisplay:10.37,2013-09-11 08:16:00,
2013-09-11 03:19:00,74.7,50.0,27.85,SW,225,3.3,3.3,42,0.00,CLR,,0.00,WeatherDisplay:10.37,2013-09-11 08:19:00,
2013-09-11 03:20:00,74.7,50.7,27.85,SSE,158,3.5,3.5,43,0.00,CLR,,0.00,WeatherDisplay:10.37,2013-09-11 08:20:00,
2013-09-11 03:22:00,74.5,50.5,27.85,SW,225,2.3,2.3,43,0.00,CLR,,0.00,WeatherDisplay:10.37,2013-09-11 08:22:00,
2013-09-11 03:25:00,74.5,50.5,27.85,WSW,248,2.0,0.0,43,0.00,CLR,,0.00,WeatherDisplay:10.37,2013-09-11 08:25:00,